createdAt,value
2018-04-29T00:00:11.609Z,59.23
2018-04-29T00:01:11.341Z,59.9
2018-04-29T00:02:11.586Z,59.99
2018-04-29T00:03:11.574Z,60.75
2018-04-29T00:04:11.310Z,61.04
2018-04-29T00:05:11.303Z,61.32
2018-04-29T00:06:11.289Z,61.99
2018-04-29T00:07:11.535Z,61.23
2018-04-29T00:08:11.746Z,60.47
2018-04-29T00:09:11.515Z,60.57
2018-04-29T00:10:11.506Z,61.13
2018-04-29T00:11:11.702Z,61.42
2018-04-29T00:12:11.553Z,61.32
2018-04-29T00:13:11.473Z,60.57
2018-04-29T00:14:11.206Z,60.57
2018-04-29T00:15:11.454Z,59.8
2018-04-29T00:16:11.445Z,59.8
2018-04-29T00:17:11.176Z,60.47
2018-04-29T00:18:11.423Z,59.99
2018-04-29T00:19:11.413Z,59.52
2018-04-29T00:20:11.142Z,59.61
2018-04-29T00:21:11.420Z,58.85
2018-04-29T00:22:11.397Z,58.95
2018-04-29T00:23:11.370Z,59.14
2018-04-29T00:24:11.360Z,59.23
2018-04-29T00:25:11.356Z,59.52
2018-04-29T00:26:11.081Z,59.05
2018-04-29T00:27:11.329Z,59.52
2018-04-29T00:28:11.317Z,59.42
2018-04-29T00:29:11.313Z,59.52
2018-04-29T00:30:11.297Z,59.71
2018-04-29T00:31:11.029Z,60.28
2018-04-29T00:32:11.299Z,60.47
2018-04-29T00:33:11.263Z,61.04
2018-04-29T00:34:11.002Z,60.75
2018-04-29T00:35:10.985Z,61.61
2018-04-29T00:36:11.236Z,61.9
2018-04-29T00:37:11.225Z,62.65
2018-04-29T00:38:11.236Z,62.75
2018-04-29T00:39:11.204Z,62.08
2018-04-29T00:40:11.195Z,61.8
2018-04-29T00:41:10.924Z,61.71
2018-04-29T00:42:10.914Z,62.37
2018-04-29T00:43:11.159Z,62.46
2018-04-29T00:44:11.154Z,62.37
2018-04-29T00:45:11.137Z,62.94
2018-04-29T00:46:10.873Z,62.34
2018-04-29T00:47:11.118Z,62.46
2018-04-29T00:48:11.110Z,61.77
2018-04-29T00:49:10.841Z,61.29
2018-04-29T00:50:11.083Z,61.48
2018-04-29T00:51:11.096Z,62.08
2018-04-29T00:52:10.808Z,61.1
2018-04-29T00:53:11.120Z,61.29
2018-04-29T00:54:10.784Z,60.25
2018-04-29T00:55:10.776Z,59.77
2018-04-29T00:56:11.033Z,59.68
2018-04-29T00:57:11.015Z,58.92
2018-04-29T00:58:11.004Z,58.35
2018-04-29T00:59:11.098Z,57.5
2018-04-29T01:00:10.722Z,57.4
2018-04-29T01:01:10.710Z,57.21
2018-04-29T01:02:10.956Z,57.02
2018-04-29T01:03:10.954Z,56.92
2018-04-29T01:04:10.942Z,55.59
2018-04-29T01:05:10.946Z,55.5
2018-04-29T01:06:10.918Z,56.45
2018-04-29T01:07:10.907Z,56.92
2018-04-29T01:08:10.893Z,57.11
2018-04-29T01:09:10.884Z,56.26
2018-04-29T01:10:10.870Z,56.35
2018-04-29T01:11:10.881Z,56.54
2018-04-29T01:12:10.851Z,57.02
2018-04-29T01:13:10.846Z,57.4
2018-04-29T01:14:10.830Z,57.02
2018-04-29T01:15:10.580Z,55.59
2018-04-29T01:16:10.805Z,54.07
2018-04-29T01:17:10.801Z,54.07
2018-04-29T01:18:10.529Z,52.74
2018-04-29T01:19:10.781Z,52.36
2018-04-29T01:20:10.744Z,51.6
2018-04-29T01:21:10.499Z,51.6
2018-04-29T01:22:10.745Z,51.6
2018-04-29T01:23:10.843Z,51.98
2018-04-29T01:24:10.727Z,51.51
2018-04-29T01:25:10.456Z,51.6
2018-04-29T01:26:10.700Z,51.51
2018-04-29T01:27:10.430Z,51.7
2018-04-29T01:28:10.659Z,52.36
2018-04-29T01:29:10.664Z,52.93
2018-04-29T01:30:10.654Z,52.64
2018-04-29T01:31:10.647Z,53.41
2018-04-29T01:32:10.635Z,53.41
2018-04-29T01:33:10.620Z,53.59
2018-04-29T01:34:10.620Z,53.59
2018-04-29T01:35:10.603Z,54.45
2018-04-29T01:36:10.595Z,54.93
2018-04-29T01:37:10.580Z,55.78
2018-04-29T01:38:10.568Z,55.78
2018-04-29T01:39:10.556Z,55.88
2018-04-29T01:40:10.553Z,55.78
2018-04-29T01:41:10.538Z,55.69
2018-04-29T01:42:10.535Z,55.88
2018-04-29T01:43:10.254Z,55.78
2018-04-29T01:44:10.504Z,55.78
2018-04-29T01:45:10.494Z,55.59
2018-04-29T01:46:10.222Z,55.21
2018-04-29T01:47:10.212Z,55.11
2018-04-29T01:48:10.458Z,55.02
2018-04-29T01:49:10.446Z,55.02
2018-04-29T01:50:10.437Z,54.93
2018-04-29T01:51:10.425Z,54.26
2018-04-29T01:52:10.158Z,52.64
2018-04-29T01:53:10.147Z,52.45
2018-04-29T01:54:10.415Z,51.89
2018-04-29T01:55:10.380Z,51.89
2018-04-29T01:56:10.370Z,51.89
2018-04-29T01:57:10.378Z,51.98
2018-04-29T01:58:10.346Z,51.6
2018-04-29T01:59:10.336Z,51.31
2018-04-29T02:00:10.068Z,51.51
2018-04-29T02:01:10.313Z,51.7
2018-04-29T02:02:10.304Z,51.89
2018-04-29T02:03:10.296Z,51.98
2018-04-29T02:04:10.279Z,51.22
2018-04-29T02:05:10.268Z,50.84
2018-04-29T02:06:10.256Z,50.08
2018-04-29T02:07:09.990Z,49.89
2018-04-29T02:08:10.233Z,49.32
2018-04-29T02:09:10.294Z,49.2
2018-04-29T02:10:10.238Z,48.85
2018-04-29T02:11:09.950Z,48.82
2018-04-29T02:12:10.200Z,48.56
2018-04-29T02:13:10.181Z,48.37
2018-04-29T02:14:10.170Z,47.8
2018-04-29T02:15:09.901Z,48.66
2018-04-29T02:16:10.151Z,48.85
2018-04-29T02:17:10.147Z,48.75
2018-04-29T02:18:10.145Z,49.13
2018-04-29T02:19:10.114Z,49.51
2018-04-29T02:20:09.842Z,49.6
2018-04-29T02:21:09.833Z,49.89
2018-04-29T02:22:10.079Z,50.74
2018-04-29T02:23:09.810Z,51.12
2018-04-29T02:24:10.057Z,51.98
2018-04-29T02:25:10.070Z,52.45
2018-04-29T02:26:10.044Z,52.84
2018-04-29T02:27:10.044Z,52.26
2018-04-29T02:28:10.011Z,52.26
2018-04-29T02:29:10.005Z,51.51
2018-04-29T02:30:09.736Z,51.12
2018-04-29T02:31:09.995Z,51.03
2018-04-29T02:32:09.975Z,50.74
2018-04-29T02:33:09.960Z,50.56
2018-04-29T02:34:09.955Z,50.37
2018-04-29T02:35:09.935Z,50.56
2018-04-29T02:36:09.927Z,50.27
2018-04-29T02:37:09.925Z,50.84
2018-04-29T02:38:09.643Z,51.03
2018-04-29T02:39:09.894Z,51.6
2018-04-29T02:40:09.622Z,51.51
2018-04-29T02:41:09.869Z,50.56
2018-04-29T02:42:09.863Z,50.18
2018-04-29T02:43:09.844Z,50.65
2018-04-29T02:44:09.836Z,50.74
2018-04-29T02:45:09.827Z,50.46
2018-04-29T02:46:09.557Z,50.74
2018-04-29T02:47:09.809Z,51.31
2018-04-29T02:48:09.533Z,51.79
2018-04-29T02:49:09.787Z,51.57
2018-04-29T02:50:09.766Z,51.57
2018-04-29T02:51:09.502Z,51.1
2018-04-29T02:52:09.487Z,49.96
2018-04-29T02:53:09.733Z,49.2
2018-04-29T02:54:09.742Z,49.1
2018-04-29T02:55:09.728Z,48.72
2018-04-29T02:56:09.709Z,48.44
2018-04-29T02:57:09.431Z,48.54
2018-04-29T02:58:09.675Z,48.06
2018-04-29T02:59:09.669Z,47.58
2018-04-29T03:00:09.659Z,47.77
2018-04-29T03:01:09.388Z,47.39
2018-04-29T03:02:09.636Z,47.23
2018-04-29T03:03:09.620Z,46.66
2018-04-29T03:04:09.635Z,45.71
2018-04-29T03:05:09.339Z,45.42
2018-04-29T03:06:09.593Z,45.04
2018-04-29T03:07:09.582Z,45.04
2018-04-29T03:08:09.568Z,45.04
2018-04-29T03:09:09.297Z,45.04
2018-04-29T03:10:09.547Z,43.8
2018-04-29T03:11:09.531Z,42.86
2018-04-29T03:12:09.263Z,43.14
2018-04-29T03:13:09.510Z,43.62
2018-04-29T03:14:09.496Z,43.9
2018-04-29T03:15:09.228Z,44.57
2018-04-29T03:16:09.218Z,45.52
2018-04-29T03:17:09.462Z,45.9
2018-04-29T03:18:09.448Z,45.83
2018-04-29T03:19:09.202Z,45.35
2018-04-29T03:20:09.436Z,45.35
2018-04-29T03:21:09.421Z,44.97
2018-04-29T03:22:09.406Z,45.26
2018-04-29T03:23:09.402Z,44.78
2018-04-29T03:24:09.394Z,44.02
2018-04-29T03:25:09.374Z,44.02
2018-04-29T03:26:09.363Z,43.64
2018-04-29T03:27:09.351Z,43.93
2018-04-29T03:28:09.340Z,44.59
2018-04-29T03:29:09.074Z,45.73
2018-04-29T03:30:09.320Z,47.63
2018-04-29T03:31:09.061Z,49.25
2018-04-29T03:32:09.301Z,50.29
2018-04-29T03:33:09.284Z,51.25
2018-04-29T03:34:09.280Z,51.62
2018-04-29T03:35:09.025Z,52.39
2018-04-29T03:36:08.995Z,52.39
2018-04-29T03:37:08.984Z,52.86
2018-04-29T03:38:09.230Z,52.76
2018-04-29T03:39:09.219Z,52.96
2018-04-29T03:40:08.951Z,52.86
2018-04-29T03:41:08.938Z,52.48
2018-04-29T03:42:09.185Z,51.82
2018-04-29T03:43:09.180Z,51.43
2018-04-29T03:44:09.163Z,51.53
2018-04-29T03:45:09.161Z,51.51
2018-04-29T03:46:09.145Z,50.93
2018-04-29T03:47:08.878Z,50.56
2018-04-29T03:48:09.121Z,50.27
2018-04-29T03:49:09.111Z,49.98
2018-04-29T03:50:09.099Z,49.13
2018-04-29T03:51:09.095Z,47.42
2018-04-29T03:52:09.077Z,46.75
2018-04-29T03:53:09.066Z,46
2018-04-29T03:54:09.055Z,45.42
2018-04-29T03:55:08.785Z,46.09
2018-04-29T03:56:09.207Z,46.37
2018-04-29T03:57:09.024Z,45.61
2018-04-29T03:58:09.010Z,44.85
2018-04-29T03:59:08.747Z,44.28
2018-04-29T04:00:09.008Z,43.62
2018-04-29T04:01:08.985Z,43.14
2018-04-29T04:02:08.966Z,43.52
2018-04-29T04:03:08.699Z,43.9
2018-04-29T04:04:08.687Z,43.9
2018-04-29T04:05:08.936Z,44
2018-04-29T04:06:08.665Z,44.67
2018-04-29T04:07:08.917Z,44.85
2018-04-29T04:08:08.903Z,45.42
2018-04-29T04:09:08.632Z,45.33
2018-04-29T04:10:08.961Z,45.71
2018-04-29T04:11:08.871Z,46.19
2018-04-29T04:12:08.870Z,45.9
2018-04-29T04:13:08.866Z,45.42
2018-04-29T04:14:08.834Z,45.8
2018-04-29T04:15:08.566Z,45.61
2018-04-29T04:16:08.814Z,45.8
2018-04-29T04:17:08.806Z,45.42
2018-04-29T04:18:08.807Z,45.52
2018-04-29T04:19:08.525Z,45.8
2018-04-29T04:20:08.513Z,45.61
2018-04-29T04:21:08.502Z,46.37
2018-04-29T04:22:08.749Z,46.37
2018-04-29T04:23:08.490Z,46.28
2018-04-29T04:24:08.726Z,46.28
2018-04-29T04:25:08.719Z,46.47
2018-04-29T04:26:08.706Z,45.83
2018-04-29T04:27:08.694Z,45.42
2018-04-29T04:28:08.686Z,44.78
2018-04-29T04:29:08.677Z,44.02
2018-04-29T04:30:08.664Z,44.02
2018-04-29T04:31:08.651Z,44.31
2018-04-29T04:32:08.657Z,45.16
2018-04-29T04:33:08.657Z,46.59
2018-04-29T04:34:08.725Z,47.73
2018-04-29T04:35:08.357Z,48.68
2018-04-29T04:36:08.644Z,49.82
2018-04-29T04:37:08.593Z,50.48
2018-04-29T04:38:08.585Z,50.68
2018-04-29T04:39:08.567Z,50.1
2018-04-29T04:40:08.567Z,50.2
2018-04-29T04:41:08.605Z,50.68
2018-04-29T04:42:08.536Z,50.68
2018-04-29T04:43:08.264Z,50.96
2018-04-29T04:44:08.252Z,51.53
2018-04-29T04:45:08.241Z,52.01
2018-04-29T04:46:08.489Z,52.1
2018-04-29T04:47:08.478Z,52.01
2018-04-29T04:48:08.478Z,51.91
2018-04-29T04:49:08.462Z,50.87
2018-04-29T04:50:08.444Z,50.2
2018-04-29T04:51:08.434Z,50.01
2018-04-29T04:52:08.432Z,50.1
2018-04-29T04:53:08.415Z,49.91
2018-04-29T04:54:08.403Z,49.82
2018-04-29T04:55:08.582Z,49.73
2018-04-29T04:56:08.385Z,49.15
2018-04-29T04:57:08.114Z,49.15
2018-04-29T04:58:08.536Z,49.25
2018-04-29T04:59:08.092Z,50.01
2018-04-29T05:00:08.080Z,49.15
2018-04-29T05:01:08.274Z,48.42
2018-04-29T05:02:08.315Z,48.61
2018-04-29T05:03:08.308Z,48.61
2018-04-29T05:04:08.300Z,48.8
2018-04-29T05:05:08.289Z,48.8
2018-04-29T05:06:08.275Z,49.46
2018-04-29T05:07:08.266Z,49.65
2018-04-29T05:08:08.256Z,49.94
2018-04-29T05:09:07.993Z,50.79
2018-04-29T05:10:07.975Z,50.82
2018-04-29T05:11:08.227Z,50.73
2018-04-29T05:12:08.220Z,52.15
2018-04-29T05:13:07.942Z,52.25
2018-04-29T05:14:07.938Z,53.3
2018-04-29T05:15:08.191Z,54.25
2018-04-29T05:16:07.914Z,54.72
2018-04-29T05:17:08.184Z,55.1
2018-04-29T05:18:08.158Z,55.49
2018-04-29T05:19:07.887Z,55.77
2018-04-29T05:20:07.876Z,55.68
2018-04-29T05:21:08.126Z,55.68
2018-04-29T05:22:08.170Z,55.96
2018-04-29T05:23:08.103Z,56.15
2018-04-29T05:24:07.833Z,55.58
2018-04-29T05:25:08.095Z,56.09
2018-04-29T05:26:08.076Z,55.99
2018-04-29T05:27:07.805Z,55.51
2018-04-29T05:28:07.794Z,54.94
2018-04-29T05:29:08.042Z,54.94
2018-04-29T05:30:08.254Z,55.99
2018-04-29T05:31:08.034Z,56.37
2018-04-29T05:32:08.244Z,56.97
2018-04-29T05:33:08.008Z,57.07
2018-04-29T05:34:07.738Z,57.45
2018-04-29T05:35:07.988Z,57.64
2018-04-29T05:36:07.976Z,58.21
2018-04-29T05:37:07.965Z,58.78
2018-04-29T05:38:07.958Z,59.92
2018-04-29T05:39:08.050Z,60.11
2018-04-29T05:40:07.942Z,60.21
2018-04-29T05:41:08.014Z,59.86
2018-04-29T05:42:07.924Z,59.19
2018-04-29T05:43:07.914Z,58.72
2018-04-29T05:44:07.647Z,58.72
2018-04-29T05:45:07.893Z,60.05
2018-04-29T05:46:07.628Z,61
2018-04-29T05:47:07.882Z,62.05
2018-04-29T05:48:07.610Z,62.72
2018-04-29T05:49:07.598Z,64.15
2018-04-29T05:50:07.853Z,64.75
2018-04-29T05:51:07.841Z,66.18
2018-04-29T05:52:07.839Z,67.9
2018-04-29T05:53:08.045Z,69.9
2018-04-29T05:54:07.558Z,70.47
2018-04-29T05:55:07.914Z,71.14
2018-04-29T05:56:07.542Z,71.43
2018-04-29T05:57:07.532Z,72
2018-04-29T05:58:07.524Z,73.52
2018-04-29T05:59:07.777Z,73.52
2018-04-29T06:00:07.511Z,74.1
2018-04-29T06:01:07.498Z,74.57
2018-04-29T06:02:07.493Z,75.05
2018-04-29T06:03:07.741Z,75.05
2018-04-29T06:04:07.732Z,75.18
2018-04-29T06:05:07.466Z,75.66
2018-04-29T06:06:07.459Z,76.23
2018-04-29T06:07:07.713Z,77.95
2018-04-29T06:08:07.704Z,78.33
2018-04-29T06:09:07.697Z,79
2018-04-29T06:10:07.710Z,80.85
2018-04-29T06:11:07.620Z,81.62
2018-04-29T06:12:07.672Z,82.76
2018-04-29T06:13:07.406Z,82.09
2018-04-29T06:14:07.769Z,83.24
2018-04-29T06:15:07.393Z,83.38
2018-04-29T06:16:07.647Z,84.14
2018-04-29T06:17:07.634Z,85.96
2018-04-29T06:18:07.629Z,86.72
2018-04-29T06:19:07.615Z,89.11
2018-04-29T06:20:07.633Z,90.3
2018-04-29T06:21:07.346Z,88.58
2018-04-29T06:22:07.604Z,89.34
2018-04-29T06:23:07.594Z,89.34
2018-04-29T06:24:07.323Z,90.39
2018-04-29T06:25:07.316Z,91.35
2018-04-29T06:26:07.967Z,92.02
2018-04-29T06:27:07.563Z,91.93
2018-04-29T06:28:07.555Z,92.93
2018-04-29T06:29:07.548Z,93.98
2018-04-29T06:30:07.283Z,94.46
2018-04-29T06:31:07.537Z,94.93
2018-04-29T06:32:07.526Z,95.61
2018-04-29T06:33:07.518Z,95.51
2018-04-29T06:34:07.515Z,95.89
2018-04-29T06:35:07.530Z,96.27
2018-04-29T06:36:07.503Z,96.08
2018-04-29T06:37:07.237Z,95.32
2018-04-29T06:38:07.490Z,95.75
2018-04-29T06:39:07.491Z,96.22
2018-04-29T06:40:07.489Z,97.66
2018-04-29T06:41:07.475Z,98.24
2018-04-29T06:42:07.209Z,99.38
2018-04-29T06:43:07.466Z,99.96
2018-04-29T06:44:07.196Z,99.99
2018-04-29T06:45:07.466Z,99.99
2018-04-29T06:46:07.444Z,99.99
2018-04-29T06:47:07.181Z,99.87
2018-04-29T06:48:07.432Z,98.38
2018-04-29T06:49:07.170Z,97.28
2018-04-29T06:50:07.423Z,98.91
2018-04-29T06:51:07.416Z,97.23
2018-04-29T06:52:07.154Z,94.31
2018-04-29T06:53:07.407Z,96.37
2018-04-29T06:54:07.404Z,91.04
2018-04-29T06:55:07.140Z,87.67
2018-04-29T06:56:07.396Z,83.48
2018-04-29T06:57:07.409Z,76.82
2018-04-29T06:58:07.145Z,72.43
2018-04-29T06:59:07.123Z,64.5
2018-04-29T07:00:07.379Z,58.87
2018-04-29T07:01:07.380Z,57.84
2018-04-29T07:02:07.391Z,56.71
2018-04-29T07:03:07.117Z,55.38
2018-04-29T07:04:07.370Z,52.39
2018-04-29T07:05:07.374Z,48.23
2018-04-29T07:06:07.112Z,48.44
2018-04-29T07:07:07.366Z,47.77
2018-04-29T07:08:07.142Z,44.6
2018-04-29T07:09:07.366Z,44.98
2018-04-29T07:10:07.118Z,41.91
2018-04-29T07:11:07.367Z,41.74
2018-04-29T07:12:07.366Z,42.13
2018-04-29T07:13:07.108Z,39.72
2018-04-29T07:14:07.443Z,38.66
2018-04-29T07:15:07.369Z,39.9
2018-04-29T07:16:07.370Z,41.93
2018-04-29T07:17:07.111Z,43.19
2018-04-29T07:18:07.367Z,45.05
2018-04-29T07:19:07.374Z,41.1
2018-04-29T07:20:07.515Z,41.1
2018-04-29T07:21:07.134Z,37.63
2018-04-29T07:22:07.377Z,38.21
2018-04-29T07:23:07.128Z,40.95
2018-04-29T07:24:07.377Z,40.56
2018-04-29T07:25:07.384Z,37.35
2018-04-29T07:26:07.156Z,39.41
2018-04-29T07:27:07.387Z,39.41
2018-04-29T07:28:07.390Z,38.44
2018-04-29T07:29:07.130Z,38.62
2018-04-29T07:30:07.402Z,38.89
2018-04-29T07:31:07.392Z,39.24
2018-04-29T07:32:07.399Z,39.24
2018-04-29T07:33:07.605Z,37.59
2018-04-29T07:34:07.634Z,37.49
2018-04-29T07:35:07.403Z,37.13
2018-04-29T07:36:07.146Z,34.8
2018-04-29T07:37:07.409Z,36.46
2018-04-29T07:38:07.411Z,34.14
2018-04-29T07:39:07.438Z,32.5
2018-04-29T07:40:07.533Z,35.13
2018-04-29T07:41:07.418Z,33.67
2018-04-29T07:42:07.418Z,34.36
2018-04-29T07:43:07.201Z,36.3
2018-04-29T07:44:07.437Z,36.02
2018-04-29T07:45:07.421Z,35.61
2018-04-29T07:46:07.422Z,37.74
2018-04-29T07:47:07.420Z,37.34
2018-04-29T07:48:07.168Z,34.89
2018-04-29T07:49:07.428Z,35.46
2018-04-29T07:50:07.429Z,36.32
2018-04-29T07:51:07.431Z,39.39
2018-04-29T07:52:07.503Z,38.97
2018-04-29T07:53:07.431Z,39.82
2018-04-29T07:54:07.438Z,39.32
2018-04-29T07:55:07.176Z,40.45
2018-04-29T07:56:07.431Z,43.52
2018-04-29T07:57:07.441Z,43.7
2018-04-29T07:58:07.658Z,44.35
2018-04-29T07:59:07.195Z,46.45
2018-04-29T08:00:07.178Z,47.51
2018-04-29T08:01:07.455Z,48.95
2018-04-29T08:02:07.455Z,50.18
2018-04-29T08:03:07.176Z,51.34
2018-04-29T08:04:07.441Z,52.87
2018-04-29T08:05:07.438Z,50.27
2018-04-29T08:06:07.436Z,56.15
2018-04-29T08:07:07.448Z,50.37
2018-04-29T08:08:07.449Z,49.7
2018-04-29T08:09:07.181Z,50.15
2018-04-29T08:10:07.454Z,50.93
2018-04-29T08:11:07.436Z,52.08
2018-04-29T08:12:07.638Z,52.56
2018-04-29T08:13:07.433Z,50.54
2018-04-29T08:14:07.439Z,50.25
2018-04-29T08:15:07.435Z,49.77
2018-04-29T08:16:07.434Z,49.55
2018-04-29T08:17:07.432Z,51.86
2018-04-29T08:18:07.177Z,54.46
2018-04-29T08:19:07.432Z,54.65
2018-04-29T08:20:07.433Z,54.78
2018-04-29T08:21:07.435Z,51.12
2018-04-29T08:22:07.461Z,49
2018-04-29T08:23:07.453Z,49.19
2018-04-29T08:24:07.430Z,49.38
2018-04-29T08:25:07.172Z,52.66
2018-04-29T08:26:07.429Z,58.05
2018-04-29T08:27:07.434Z,52.97
2018-04-29T08:28:07.427Z,51.62
2018-04-29T08:29:07.433Z,51.14
2018-04-29T08:30:07.532Z,54.22
2018-04-29T08:31:07.427Z,51.62
2018-04-29T08:32:07.431Z,49.12
2018-04-29T08:33:07.425Z,49.02
2018-04-29T08:34:07.428Z,47.49
2018-04-29T08:35:07.426Z,48.06
2018-04-29T08:36:07.232Z,50.66
2018-04-29T08:37:07.164Z,49.12
2018-04-29T08:38:07.163Z,49.41
2018-04-29T08:39:07.164Z,48.25
2018-04-29T08:40:07.423Z,47.36
2018-04-29T08:41:07.431Z,48.13
2018-04-29T08:42:07.421Z,50.63
2018-04-29T08:43:07.420Z,50.15
2018-04-29T08:44:07.162Z,49.68
2018-04-29T08:45:07.162Z,50.45
2018-04-29T08:46:07.428Z,49.48
2018-04-29T08:47:07.417Z,48.9
2018-04-29T08:48:07.158Z,50.35
2018-04-29T08:49:07.414Z,50.15
2018-04-29T08:50:07.585Z,50.73
2018-04-29T08:51:07.417Z,51.21
2018-04-29T08:52:07.413Z,50.37
2018-04-29T08:53:07.162Z,49.12
2018-04-29T08:54:07.410Z,48.74
2018-04-29T08:55:07.416Z,49.79
2018-04-29T08:56:07.634Z,50.37
2018-04-29T08:57:07.154Z,49.51
2018-04-29T08:58:07.427Z,50.37
2018-04-29T08:59:07.414Z,49.12
2018-04-29T09:00:07.427Z,48.74
2018-04-29T09:01:07.412Z,50.85
2018-04-29T09:02:07.410Z,50.11
2018-04-29T09:03:07.419Z,49.43
2018-04-29T09:04:07.151Z,47.6
2018-04-29T09:05:07.405Z,48.76
2018-04-29T09:06:07.148Z,50.4
2018-04-29T09:07:07.147Z,51.56
2018-04-29T09:08:07.632Z,48.95
2018-04-29T09:09:07.426Z,48.28
2018-04-29T09:10:07.491Z,49.63
2018-04-29T09:11:07.403Z,49.24
2018-04-29T09:12:07.404Z,48.97
2018-04-29T09:13:07.401Z,48.21
2018-04-29T09:14:07.150Z,48.59
2018-04-29T09:15:07.401Z,47.24
2018-04-29T09:16:07.147Z,48.18
2018-04-29T09:17:07.421Z,50.78
2018-04-29T09:18:07.400Z,52.23
2018-04-29T09:19:07.406Z,54.54
2018-04-29T09:20:07.401Z,50.42
2018-04-29T09:21:07.407Z,51.1
2018-04-29T09:22:07.417Z,49.87
2018-04-29T09:23:07.397Z,48.33
2018-04-29T09:24:07.397Z,47.07
2018-04-29T09:25:07.399Z,46.78
2018-04-29T09:26:07.408Z,46.88
2018-04-29T09:27:07.140Z,47.27
2018-04-29T09:28:07.394Z,46.4
2018-04-29T09:29:07.398Z,47.82
2018-04-29T09:30:07.397Z,48.97
2018-04-29T09:31:07.394Z,48.88
2018-04-29T09:32:07.403Z,48.49
2018-04-29T09:33:07.138Z,48.11
2018-04-29T09:34:07.398Z,47.92
2018-04-29T09:35:07.138Z,49.84
2018-04-29T09:36:07.394Z,50.42
2018-04-29T09:37:07.528Z,50.81
2018-04-29T09:38:07.136Z,47.05
2018-04-29T09:39:07.396Z,47.34
2018-04-29T09:40:07.140Z,48.21
2018-04-29T09:41:07.395Z,50.23
2018-04-29T09:42:07.139Z,50.42
2018-04-29T09:43:07.137Z,49.19
2018-04-29T09:44:07.393Z,48.33
2018-04-29T09:45:07.395Z,47.82
2018-04-29T09:46:07.398Z,50.54
2018-04-29T09:47:07.397Z,50.26
2018-04-29T09:48:07.400Z,51.41
2018-04-29T09:49:07.396Z,49.68
2018-04-29T09:50:07.135Z,48.9
2018-04-29T09:51:07.134Z,48.23
2018-04-29T09:52:07.397Z,49.87
2018-04-29T09:53:07.138Z,49.9
2018-04-29T09:54:07.396Z,46.61
2018-04-29T09:55:07.397Z,47.09
2018-04-29T09:56:07.396Z,47.96
2018-04-29T09:57:07.393Z,47.96
2018-04-29T09:58:07.139Z,49.32
2018-04-29T09:59:07.391Z,49.22
2018-04-29T10:00:07.394Z,45.07
2018-04-29T10:01:07.588Z,45.65
2018-04-29T10:02:07.395Z,47.77
2018-04-29T10:03:07.400Z,49.02
2018-04-29T10:04:07.403Z,45.75
2018-04-29T10:05:07.398Z,47.38
2018-04-29T10:06:07.393Z,48.16
2018-04-29T10:07:07.395Z,49.8
2018-04-29T10:08:07.394Z,50.67
2018-04-29T10:09:07.134Z,52.5
2018-04-29T10:10:07.405Z,52.79
2018-04-29T10:11:07.400Z,52.11
2018-04-29T10:12:07.395Z,46.9
2018-04-29T10:13:07.437Z,46.15
2018-04-29T10:14:07.399Z,47.87
2018-04-29T10:15:07.400Z,49.02
2018-04-29T10:16:07.398Z,49.12
2018-04-29T10:17:07.423Z,47.96
2018-04-29T10:18:07.139Z,49.7
2018-04-29T10:19:07.422Z,49.8
2018-04-29T10:20:07.400Z,50.28
2018-04-29T10:21:07.402Z,52.79
2018-04-29T10:22:07.406Z,54.65
2018-04-29T10:23:07.140Z,53.78
2018-04-29T10:24:07.402Z,52.01
2018-04-29T10:25:07.145Z,52.43
2018-04-29T10:26:07.144Z,50.57
2018-04-29T10:27:07.409Z,49.41
2018-04-29T10:28:07.411Z,50.86
2018-04-29T10:29:07.403Z,55.59
2018-04-29T10:30:07.420Z,51.05
2018-04-29T10:31:07.404Z,51.63
2018-04-29T10:32:07.405Z,49.8
2018-04-29T10:33:07.648Z,49.1
2018-04-29T10:34:07.407Z,47.94
2018-04-29T10:35:07.159Z,49.07
2018-04-29T10:36:07.407Z,51.39
2018-04-29T10:37:07.410Z,51.39
2018-04-29T10:38:07.408Z,52.86
2018-04-29T10:39:07.406Z,55.08
2018-04-29T10:40:07.409Z,58.17
2018-04-29T10:41:07.444Z,54.69
2018-04-29T10:42:07.410Z,52.76
2018-04-29T10:43:07.412Z,52.09
2018-04-29T10:44:07.154Z,50.93
2018-04-29T10:45:07.425Z,49.48
2018-04-29T10:46:07.428Z,51.61
2018-04-29T10:47:07.430Z,54.69
2018-04-29T10:48:07.173Z,54.69
2018-04-29T10:49:07.416Z,56.43
2018-04-29T10:50:07.416Z,56.74
2018-04-29T10:51:07.152Z,52.89
2018-04-29T10:52:07.155Z,53.17
2018-04-29T10:53:07.415Z,48.16
2018-04-29T10:54:07.408Z,48.66
2018-04-29T10:55:07.430Z,49.92
2018-04-29T10:56:07.422Z,48.74
2018-04-29T10:57:07.156Z,50.47
2018-04-29T10:58:07.418Z,48.57
2018-04-29T10:59:07.412Z,49.34
2018-04-29T11:00:07.414Z,48.18
2018-04-29T11:01:07.158Z,50.01
2018-04-29T11:02:07.417Z,49.34
2018-04-29T11:03:07.158Z,48.86
2018-04-29T11:04:07.421Z,49.73
2018-04-29T11:05:07.430Z,46.34
2018-04-29T11:06:07.417Z,46.54
2018-04-29T11:07:07.420Z,47.41
2018-04-29T11:08:07.419Z,45.18
2018-04-29T11:09:07.162Z,45.48
2018-04-29T11:10:07.165Z,46.44
2018-04-29T11:11:07.163Z,46.25
2018-04-29T11:12:07.163Z,47.63
2018-04-29T11:13:07.164Z,50.52
2018-04-29T11:14:07.426Z,50.52
2018-04-29T11:15:07.433Z,49.39
2018-04-29T11:16:07.428Z,51.68
2018-04-29T11:17:07.167Z,49
2018-04-29T11:18:07.441Z,47.26
2018-04-29T11:19:07.425Z,44.17
2018-04-29T11:20:07.431Z,43.78
2018-04-29T11:21:07.173Z,45.42
2018-04-29T11:22:07.627Z,45.23
2018-04-29T11:23:07.432Z,45.35
2018-04-29T11:24:07.439Z,45.93
2018-04-29T11:25:07.435Z,47.86
2018-04-29T11:26:07.434Z,48.18
2018-04-29T11:27:07.184Z,45.95
2018-04-29T11:28:07.205Z,44.98
2018-04-29T11:29:07.443Z,44.21
2018-04-29T11:30:07.443Z,46.56
2018-04-29T11:31:07.444Z,45.1
2018-04-29T11:32:07.443Z,43.37
2018-04-29T11:33:07.188Z,41.82
2018-04-29T11:34:07.450Z,41.52
2018-04-29T11:35:07.447Z,42.28
2018-04-29T11:36:07.457Z,43.34
2018-04-29T11:37:07.451Z,44.7
2018-04-29T11:38:07.198Z,43.34
2018-04-29T11:39:07.477Z,42.47
2018-04-29T11:40:07.201Z,46.05
2018-04-29T11:41:07.458Z,45.76
2018-04-29T11:42:07.461Z,44.02
2018-04-29T11:43:07.466Z,42.96
2018-04-29T11:44:07.207Z,40.44
2018-04-29T11:45:07.466Z,42.96
2018-04-29T11:46:07.489Z,43.15
2018-04-29T11:47:07.472Z,41.41
2018-04-29T11:48:07.473Z,42.08
2018-04-29T11:49:07.216Z,41.97
2018-04-29T11:50:07.485Z,43.13
2018-04-29T11:51:07.515Z,44.38
2018-04-29T11:52:07.496Z,43.82
2018-04-29T11:53:07.484Z,43.54
2018-04-29T11:54:07.491Z,43.15
2018-04-29T11:55:07.486Z,43.92
2018-04-29T11:56:07.492Z,44.21
2018-04-29T11:57:07.487Z,44.6
2018-04-29T11:58:07.233Z,44.89
2018-04-29T11:59:07.512Z,46.15
2018-04-29T12:00:07.493Z,44.7
2018-04-29T12:01:07.498Z,43.73
2018-04-29T12:02:07.573Z,44.6
2018-04-29T12:03:07.244Z,44.98
2018-04-29T12:04:07.252Z,43.34
2018-04-29T12:05:07.509Z,43.24
2018-04-29T12:06:07.506Z,43.54
2018-04-29T12:07:07.254Z,43.82
2018-04-29T12:08:07.254Z,43.92
2018-04-29T12:09:07.529Z,42.96
2018-04-29T12:10:07.260Z,43.63
2018-04-29T12:11:07.519Z,47.11
2018-04-29T12:12:07.269Z,46.15
2018-04-29T12:13:07.268Z,44.5
2018-04-29T12:14:07.288Z,44.57
2018-04-29T12:15:07.525Z,43.13
2018-04-29T12:16:07.271Z,43.23
2018-04-29T12:17:07.536Z,42.14
2018-04-29T12:18:07.552Z,41.75
2018-04-29T12:19:07.543Z,40.5
2018-04-29T12:20:07.281Z,41.35
2018-04-29T12:21:07.280Z,41.93
2018-04-29T12:22:07.550Z,43.28
2018-04-29T12:23:07.287Z,42.5
2018-04-29T12:24:07.542Z,42.02
2018-04-29T12:25:07.288Z,41.93
2018-04-29T12:26:07.553Z,42.19
2018-04-29T12:27:07.551Z,42.21
2018-04-29T12:28:07.559Z,44.6
2018-04-29T12:29:07.315Z,46.73
2018-04-29T12:30:07.616Z,44.32
2018-04-29T12:31:07.553Z,44.32
2018-04-29T12:32:07.301Z,46.25
2018-04-29T12:33:07.578Z,47.6
2018-04-29T12:34:07.305Z,46.54
2018-04-29T12:35:07.561Z,45
2018-04-29T12:36:07.564Z,44.8
2018-04-29T12:37:07.566Z,45.11
2018-04-29T12:38:07.565Z,45.31
2018-04-29T12:39:07.576Z,45.79
2018-04-29T12:40:07.311Z,44.92
2018-04-29T12:41:07.570Z,45.89
2018-04-29T12:42:07.312Z,47.63
2018-04-29T12:43:07.316Z,46.85
2018-04-29T12:44:07.798Z,45.59
2018-04-29T12:45:07.589Z,45.5
2018-04-29T12:46:07.582Z,46.08
2018-04-29T12:47:07.586Z,47.81
2018-04-29T12:48:07.567Z,45.81
2018-04-29T12:49:07.602Z,45.42
2018-04-29T12:50:07.327Z,49.39
2018-04-29T12:51:07.589Z,46.03
2018-04-29T12:52:07.591Z,44.57
2018-04-29T12:53:07.332Z,44.29
2018-04-29T12:54:07.592Z,43.23
2018-04-29T12:55:07.339Z,42.66
2018-04-29T12:56:07.345Z,42.07